Time;durP1;ratioP1;P1;durP2;ratioP2;P2;SDS_P1;SDS_P2;PMS_P1;PMS_P2;Temp;Humidity;BMP_temperature;BMP_pressure;BME280_temperature;BME280_humidity;BME280_pressure;Samples;Min_cycle;Max_cycle;Signal;HPM_P1;HPM_P2
2023/11/08 00:00:07;;;;;;;5.90;5.80;;;20.80;74.10;;;;;;5032093;28;20477;-68
2023/11/08 00:02:34;;;;;;;6.80;6.47;;;20.80;74.10;;;;;;5032422;28;20479;-67
2023/11/08 00:05:03;;;;;;;6.10;6.00;;;20.90;74.20;;;;;;5031635;28;20479;-68
2023/11/08 00:07:30;;;;;;;6.47;6.27;;;20.80;74.10;;;;;;5034177;28;20453;-67
2023/11/08 00:09:57;;;;;;;6.10;6.00;;;20.80;74.10;;;;;;5035781;28;20481;-67
2023/11/08 00:12:25;;;;;;;6.17;5.97;;;20.80;74.10;;;;;;5035961;28;20483;-67
2023/11/08 00:14:52;;;;;;;5.83;5.73;;;20.80;74.20;;;;;;5035750;28;20473;-67
2023/11/08 00:17:19;;;;;;;6.67;6.40;;;20.80;74.20;;;;;;5036222;28;20484;-67
2023/11/08 00:19:47;;;;;;;6.60;6.40;;;20.80;74.10;;;;;;5036033;28;20492;-67
2023/11/08 00:22:13;;;;;;;6.20;6.00;;;20.80;74.20;;;;;;5035597;28;20954;-67
2023/11/08 00:24:40;;;;;;;6.00;5.90;;;20.80;74.20;;;;;;5035275;28;20626;-67
2023/11/08 00:27:07;;;;;;;5.83;5.73;;;20.80;74.20;;;;;;5035626;28;20488;-67
2023/11/08 00:29:36;;;;;;;6.50;6.40;;;20.80;74.20;;;;;;5034994;28;20500;-67
2023/11/08 00:32:03;;;;;;;6.30;6.10;;;20.80;74.10;;;;;;5035613;28;20442;-67
2023/11/08 00:34:29;;;;;;;6.30;6.20;;;20.80;74.20;;;;;;5035252;28;20864;-67
2023/11/08 00:36:57;;;;;;;6.53;6.43;;;20.80;74.20;;;;;;5034943;28;20461;-67
2023/11/08 00:39:23;;;;;;;5.57;5.47;;;20.80;74.30;;;;;;5035082;28;20544;-68
2023/11/08 00:41:50;;;;;;;5.90;5.80;;;20.80;74.30;;;;;;5035342;28;20536;-67
2023/11/08 00:44:17;;;;;;;5.77;5.67;;;20.80;74.30;;;;;;5034976;28;20512;-67
2023/11/08 00:46:45;;;;;;;6.20;6.00;;;20.80;74.30;;;;;;5034949;28;20488;-67
2023/11/08 00:49:12;;;;;;;5.80;5.70;;;20.80;74.30;;;;;;5035285;28;20982;-68
2023/11/08 00:51:40;;;;;;;5.83;5.73;;;20.80;74.30;;;;;;5035055;28;20441;-67
2023/11/08 00:54:07;;;;;;;6.10;6.00;;;20.80;74.40;;;;;;5035580;28;20522;-67
2023/11/08 00:56:34;;;;;;;5.97;5.87;;;20.80;74.30;;;;;;5034983;28;20824;-67
2023/11/08 00:59:01;;;;;;;6.20;6.10;;;20.70;74.30;;;;;;5035128;28;20460;-67
2023/11/08 01:01:30;;;;;;;6.30;6.20;;;20.80;74.50;;;;;;5035504;28;20485;-67
2023/11/08 01:03:59;;;;;;;6.10;6.00;;;20.70;74.30;;;;;;5035108;28;20477;-67
2023/11/08 01:06:27;;;;;;;7.10;7.00;;;20.80;74.40;;;;;;5034307;28;20453;-67
2023/11/08 01:08:54;;;;;;;7.87;7.57;;;20.80;74.50;;;;;;5033597;28;20445;-68
2023/11/08 01:11:21;;;;;;;6.10;5.90;;;20.70;74.30;;;;;;5036785;28;20477;-67
2023/11/08 01:13:48;;;;;;;6.10;6.00;;;20.80;74.50;;;;;;5037286;28;20805;-67
2023/11/08 01:16:15;;;;;;;6.00;5.90;;;20.70;74.40;;;;;;5034924;28;20571;-67
2023/11/08 01:18:42;;;;;;;5.73;5.63;;;20.70;74.40;;;;;;5035176;28;20531;-67
2023/11/08 01:21:10;;;;;;;5.80;5.70;;;20.70;74.20;;;;;;5035350;28;20983;-67
2023/11/08 01:23:38;;;;;;;5.80;5.70;;;20.80;74.40;;;;;;5034890;28;20535;-68
2023/11/08 01:26:06;;;;;;;5.93;5.83;;;20.80;74.50;;;;;;5034901;28;20444;-66
2023/11/08 01:28:32;;;;;;;5.77;5.60;;;20.70;74.30;;;;;;5034260;28;20534;-67
2023/11/08 01:30:59;;;;;;;6.13;6.03;;;20.70;74.30;;;;;;5034167;28;20944;-67
2023/11/08 01:33:26;;;;;;;6.20;6.10;;;20.70;74.30;;;;;;5034669;28;20473;-67
2023/11/08 01:35:53;;;;;;;6.10;5.90;;;20.70;74.40;;;;;;5034443;28;20491;-66
2023/11/08 01:38:21;;;;;;;6.10;5.90;;;20.70;74.40;;;;;;5033983;28;20480;-67
2023/11/08 01:40:48;;;;;;;6.47;6.27;;;20.70;74.30;;;;;;5033707;28;20465;-67
2023/11/08 01:43:28;;;;;;;5.73;5.63;;;20.70;74.30;;;;;;5033498;28;20523;-66
2023/11/08 01:46:05;;;;;;;6.57;6.37;;;20.70;74.30;;;;;;5033566;28;20448;-68
2023/11/08 01:48:32;;;;;;;6.00;5.90;;;20.70;74.30;;;;;;5033847;28;20479;-67
2023/11/08 01:50:59;;;;;;;6.30;6.20;;;20.70;74.30;;;;;;5033551;28;20500;-67
2023/11/08 01:53:29;;;;;;;6.10;6.00;;;20.70;74.40;;;;;;5033805;28;20442;-67
2023/11/08 01:55:56;;;;;;;6.07;5.97;;;20.70;74.40;;;;;;5033800;28;20437;-67
2023/11/08 01:58:23;;;;;;;6.10;6.00;;;20.70;74.50;;;;;;5033697;28;20449;-67
2023/11/08 02:00:51;;;;;;;6.27;6.17;;;20.70;74.40;;;;;;5032996;28;20510;-67
2023/11/08 02:03:18;;;;;;;6.10;5.90;;;20.70;74.40;;;;;;5033238;28;20476;-67
2023/11/08 02:05:45;;;;;;;5.93;5.83;;;20.70;74.30;;;;;;5033181;28;20854;-67
2023/11/08 02:08:12;;;;;;;6.40;6.20;;;20.70;74.30;;;;;;5033079;28;20483;-67
2023/11/08 02:10:42;;;;;;;6.57;6.47;;;20.70;74.30;;;;;;5033298;28;20901;-67
2023/11/08 02:13:09;;;;;;;5.93;5.83;;;20.70;74.30;;;;;;5033427;28;20488;-67
2023/11/08 02:15:39;;;;;;;5.80;5.60;;;20.70;74.30;;;;;;5033302;28;20484;-67
2023/11/08 02:18:06;;;;;;;6.30;6.20;;;20.70;74.40;;;;;;5033050;28;20447;-68
2023/11/08 02:20:34;;;;;;;6.50;6.20;;;20.70;74.40;;;;;;5032970;28;20493;-68
2023/11/08 02:23:01;;;;;;;5.90;5.80;;;20.70;74.40;;;;;;5032822;28;21003;-68
2023/11/08 02:25:30;;;;;;;6.57;6.37;;;20.70;75.10;;;;;;5033021;28;20520;-68
2023/11/08 02:27:58;;;;;;;6.13;6.03;;;20.70;74.40;;;;;;5032828;28;20477;-68
2023/11/08 02:30:25;;;;;;;6.00;5.90;;;20.70;74.40;;;;;;5032424;28;20468;-68
2023/11/08 02:32:52;;;;;;;6.20;6.00;;;20.70;74.40;;;;;;5032565;28;20449;-68
2023/11/08 02:35:19;;;;;;;5.80;5.70;;;20.70;74.30;;;;;;5032796;28;20523;-68
2023/11/08 02:37:48;;;;;;;5.80;5.70;;;20.70;74.30;;;;;;5032479;28;20508;-68
2023/11/08 02:40:15;;;;;;;6.17;6.07;;;20.70;74.30;;;;;;5032572;28;20992;-68
2023/11/08 02:42:44;;;;;;;6.60;6.40;;;20.70;74.30;;;;;;5034459;28;20441;-67
2023/11/08 02:45:11;;;;;;;6.00;5.90;;;20.70;74.30;;;;;;5032266;28;20563;-68
2023/11/08 02:47:38;;;;;;;6.93;6.83;;;20.70;74.30;;;;;;5032258;28;20476;-67
2023/11/08 02:50:05;;;;;;;6.17;6.07;;;20.60;74.30;;;;;;5032231;28;20497;-67
2023/11/08 02:52:32;;;;;;;5.90;5.80;;;20.70;74.30;;;;;;5032347;28;20476;-67
2023/11/08 02:54:59;;;;;;;6.13;6.03;;;20.70;74.30;;;;;;5032443;28;20444;-67
2023/11/08 02:57:27;;;;;;;6.40;6.30;;;20.70;74.20;;;;;;5032324;28;20971;-67
2023/11/08 02:59:55;;;;;;;6.23;6.03;;;20.70;74.30;;;;;;5046299;22;20797;-65
2023/11/08 03:02:23;;;;;;;5.97;5.87;;;20.70;74.30;;;;;;5024710;28;20454;-65
2023/11/08 03:04:50;;;;;;;6.03;5.93;;;20.70;74.20;;;;;;5011821;28;21113;-65
2023/11/08 03:07:19;;;;;;;6.50;6.40;;;20.70;74.20;;;;;;5011809;28;20450;-65
2023/11/08 03:09:45;;;;;;;6.40;6.10;;;20.70;74.20;;;;;;5012505;28;20465;-65
2023/11/08 03:12:12;;;;;;;5.93;5.83;;;20.70;74.20;;;;;;5018250;28;20473;-66
2023/11/08 03:14:39;;;;;;;6.30;6.10;;;20.70;74.20;;;;;;5011699;28;20473;-65
2023/11/08 03:17:08;;;;;;;6.30;6.20;;;20.70;74.20;;;;;;5011689;28;20580;-66
2023/11/08 03:19:35;;;;;;;6.00;5.90;;;20.70;74.10;;;;;;5012437;28;20458;-65
2023/11/08 03:22:02;;;;;;;5.90;5.80;;;20.70;74.10;;;;;;5003883;28;20465;-65
2023/11/08 03:24:29;;;;;;;6.60;6.50;;;20.70;74.20;;;;;;5011555;28;20553;-65
2023/11/08 03:26:56;;;;;;;6.10;6.00;;;20.70;74.20;;;;;;5011604;28;20442;-66
2023/11/08 03:29:23;;;;;;;6.20;6.10;;;20.70;74.10;;;;;;5015588;28;20486;-65
2023/11/08 03:31:50;;;;;;;6.00;5.90;;;20.70;74.20;;;;;;5011721;28;21007;-65
2023/11/08 03:34:18;;;;;;;6.17;6.07;;;20.70;74.20;;;;;;5011495;28;20997;-65
2023/11/08 03:36:45;;;;;;;6.80;6.60;;;20.60;74.10;;;;;;5011557;28;20545;-65
2023/11/08 03:39:13;;;;;;;6.60;6.40;;;20.70;74.20;;;;;;5015943;28;20901;-65
2023/11/08 03:41:40;;;;;;;6.40;6.10;;;20.70;74.20;;;;;;5012861;28;20488;-65
2023/11/08 03:44:08;;;;;;;6.23;6.03;;;20.60;74.10;;;;;;5015643;28;20489;-65
2023/11/08 03:46:35;;;;;;;6.77;6.67;;;20.60;74.00;;;;;;5015581;28;20476;-65
2023/11/08 03:49:01;;;;;;;6.33;6.23;;;20.70;74.10;;;;;;5015726;28;20479;-65
2023/11/08 03:51:30;;;;;;;5.97;5.87;;;20.60;74.00;;;;;;5015285;28;20497;-65
2023/11/08 03:53:56;;;;;;;5.90;5.80;;;20.70;74.10;;;;;;5015242;28;20477;-65
2023/11/08 03:56:27;;;;;;;6.60;6.30;;;20.70;74.10;;;;;;5015218;28;20469;-65
2023/11/08 03:58:54;;;;;;;6.17;6.07;;;20.70;74.20;;;;;;5014386;28;20450;-65
2023/11/08 04:01:21;;;;;;;6.17;6.07;;;20.70;74.30;;;;;;5014876;28;20484;-65
2023/11/08 04:03:47;;;;;;;6.60;6.40;;;20.70;74.30;;;;;;5014892;28;20473;-65
2023/11/08 04:06:14;;;;;;;6.70;6.50;;;20.70;74.30;;;;;;5015178;28;20474;-65
2023/11/08 04:08:43;;;;;;;6.17;6.07;;;20.70;74.20;;;;;;5015774;28;20477;-66
2023/11/08 04:11:10;;;;;;;6.73;6.50;;;20.70;74.20;;;;;;5014928;28;20466;-65
2023/11/08 04:13:37;;;;;;;6.33;6.13;;;20.70;74.20;;;;;;5015177;28;20474;-65
2023/11/08 04:16:04;;;;;;;6.03;5.93;;;20.70;74.10;;;;;;5007024;28;20470;-65
2023/11/08 04:18:33;;;;;;;6.43;6.33;;;20.70;74.10;;;;;;5022551;28;20961;-65
2023/11/08 04:21:00;;;;;;;6.03;5.93;;;20.70;74.20;;;;;;5014550;28;20512;-65
2023/11/08 04:23:27;;;;;;;5.90;5.80;;;20.60;74.10;;;;;;5014789;28;20512;-65
2023/11/08 04:25:55;;;;;;;6.10;6.00;;;20.70;74.20;;;;;;5014666;28;20858;-66
2023/11/08 04:28:22;;;;;;;6.23;6.13;;;20.60;74.10;;;;;;5015194;28;20492;-65
2023/11/08 04:30:49;;;;;;;6.60;6.40;;;20.60;74.10;;;;;;5014579;28;20501;-65
2023/11/08 04:33:15;;;;;;;6.30;6.20;;;20.60;74.10;;;;;;5014727;28;20473;-65
2023/11/08 04:35:42;;;;;;;6.80;6.60;;;20.70;74.30;;;;;;5014321;28;20483;-65
2023/11/08 04:38:10;;;;;;;6.50;6.40;;;20.70;74.40;;;;;;5022830;28;20491;-65
2023/11/08 04:40:37;;;;;;;6.20;6.07;;;20.70;74.50;;;;;;5018869;28;20468;-65
2023/11/08 04:43:06;;;;;;;6.03;5.93;;;20.70;74.50;;;;;;5006420;28;20520;-66
2023/11/08 04:45:32;;;;;;;6.50;6.40;;;20.70;74.50;;;;;;5018096;28;21004;-65
2023/11/08 04:47:59;;;;;;;6.60;6.50;;;20.70;74.60;;;;;;5014295;28;20880;-65
2023/11/08 04:50:26;;;;;;;6.63;6.53;;;20.70;74.60;;;;;;5014438;28;21015;-66
2023/11/08 04:52:53;;;;;;;6.90;6.80;;;20.70;75.00;;;;;;5013575;28;20480;-65
2023/11/08 04:55:20;;;;;;;6.50;6.40;;;20.70;75.10;;;;;;5014400;28;21045;-65
2023/11/08 04:57:47;;;;;;;6.67;6.53;;;20.70;75.20;;;;;;5013975;28;20442;-65
2023/11/08 05:00:16;;;;;;;6.63;6.53;;;20.80;75.30;;;;;;5013908;28;20471;-65
2023/11/08 05:02:44;;;;;;;7.70;7.40;;;20.80;75.40;;;;;;5014166;28;20456;-66
2023/11/08 05:05:14;;;;;;;7.60;7.43;;;20.80;75.20;;;;;;5014021;28;20481;-73
2023/11/08 05:07:42;;;;;;;6.87;6.77;;;20.80;75.20;;;;;;5014099;28;20454;-72
2023/11/08 05:10:10;;;;;;;7.30;7.10;;;20.90;78.10;;;;;;5013876;28;20458;-72
2023/11/08 05:12:38;;;;;;;8.43;8.13;;;21.00;76.20;;;;;;5021842;28;20484;-70
2023/11/08 05:15:09;;;;;;;7.60;7.40;;;21.10;76.20;;;;;;5013662;28;20467;-72
2023/11/08 05:17:37;;;;;;;8.10;7.90;;;21.20;76.20;;;;;;5014013;28;20478;-73
2023/11/08 05:20:05;;;;;;;8.07;7.87;;;21.20;75.90;;;;;;5005680;28;20836;-72
2023/11/08 05:22:33;;;;;;;7.80;7.67;;;21.30;76.40;;;;;;5013497;28;20571;-67
2023/11/08 05:25:00;;;;;;;8.00;7.80;;;21.30;75.00;;;;;;5013951;28;20477;-67
2023/11/08 05:27:27;;;;;;;8.50;8.23;;;21.20;74.60;;;;;;5013486;28;20816;-66
2023/11/08 05:29:55;;;;;;;7.80;7.60;;;21.20;74.40;;;;;;5013379;28;20466;-67
2023/11/08 05:32:24;;;;;;;9.80;8.63;;;21.20;74.70;;;;;;5013765;28;20469;-67
2023/11/08 05:34:52;;;;;;;9.90;9.40;;;21.20;75.50;;;;;;5013380;28;20454;-67
2023/11/08 05:37:19;;;;;;;15.77;10.27;;;21.20;76.90;;;;;;5013453;28;20492;-67
2023/11/08 05:39:47;;;;;;;11.03;10.20;;;21.20;79.10;;;;;;5013589;28;20490;-68
2023/11/08 05:42:15;;;;;;;14.07;10.23;;;21.30;82.10;;;;;;5017707;28;20454;-67
2023/11/08 05:44:43;;;;;;;11.77;10.13;;;21.30;81.60;;;;;;5013130;28;20509;-68
2023/11/08 05:47:10;;;;;;;20.93;11.53;;;21.30;83.00;;;;;;5013068;28;20449;-67
2023/11/08 05:49:37;;;;;;;11.80;10.73;;;21.30;83.30;;;;;;5013157;28;20450;-65
2023/11/08 05:52:05;;;;;;;13.43;10.73;;;21.30;82.50;;;;;;5012738;28;20466;-65
2023/11/08 05:54:32;;;;;;;12.37;10.50;;;21.40;82.00;;;;;;5012954;28;20854;-65
2023/11/08 05:56:59;;;;;;;9.57;8.90;;;21.40;81.60;;;;;;5012817;28;20508;-65
2023/11/08 05:59:27;;;;;;;10.70;10.00;;;21.50;81.40;;;;;;5013123;28;20442;-65
2023/11/08 06:01:54;;;;;;;11.73;10.40;;;21.50;81.00;;;;;;5012621;28;20949;-65
2023/11/08 06:04:21;;;;;;;11.47;10.30;;;21.60;80.80;;;;;;5011789;28;20446;-65
2023/11/08 06:06:48;;;;;;;10.77;9.77;;;21.60;80.40;;;;;;5012687;28;20524;-65
2023/11/08 06:09:18;;;;;;;11.03;10.37;;;21.60;80.10;;;;;;5012663;28;20452;-65
2023/11/08 06:11:45;;;;;;;11.13;10.30;;;21.70;79.80;;;;;;5012358;28;21011;-65
2023/11/08 06:14:12;;;;;;;10.67;9.80;;;21.70;79.50;;;;;;5012546;28;20496;-65
2023/11/08 06:16:40;;;;;;;9.73;9.03;;;21.70;79.20;;;;;;5012547;28;20449;-65
2023/11/08 06:19:07;;;;;;;15.63;9.37;;;21.70;78.90;;;;;;5012452;28;20450;-65
2023/11/08 06:21:34;;;;;;;9.20;8.37;;;21.70;78.70;;;;;;5012321;28;20508;-65
2023/11/08 06:24:02;;;;;;;9.60;8.80;;;21.70;78.40;;;;;;5012465;28;20480;-65
2023/11/08 06:26:30;;;;;;;10.07;9.20;;;21.80;78.40;;;;;;5012357;28;20636;-65
2023/11/08 06:28:57;;;;;;;9.07;8.47;;;21.80;78.30;;;;;;5012297;28;20449;-65
2023/11/08 06:31:24;;;;;;;9.37;8.87;;;21.80;78.20;;;;;;5012249;28;20996;-65
2023/11/08 06:33:51;;;;;;;10.00;9.43;;;21.80;78.00;;;;;;5012300;28;20833;-66
2023/11/08 06:36:18;;;;;;;9.67;9.17;;;21.90;77.90;;;;;;5012317;28;20446;-66
2023/11/08 06:38:45;;;;;;;10.97;10.07;;;21.90;77.70;;;;;;5012083;28;20481;-66
2023/11/08 06:41:12;;;;;;;10.23;9.53;;;21.90;77.50;;;;;;5012111;28;20535;-66
2023/11/08 06:43:40;;;;;;;9.97;9.07;;;21.90;77.30;;;;;;5012202;28;20477;-66
2023/11/08 06:46:07;;;;;;;8.93;8.33;;;21.90;77.20;;;;;;5011879;28;20952;-65
2023/11/08 06:48:34;;;;;;;9.47;8.87;;;22.00;77.20;;;;;;5012391;28;20876;-66
2023/11/08 06:51:01;;;;;;;10.20;9.43;;;22.00;77.10;;;;;;5011925;28;20470;-66
2023/11/08 06:53:28;;;;;;;9.20;8.90;;;22.00;77.10;;;;;;5011836;28;20957;-66
2023/11/08 06:55:57;;;;;;;10.27;9.23;;;22.10;77.00;;;;;;5011797;28;20873;-66
2023/11/08 06:58:28;;;;;;;9.70;9.20;;;22.10;76.80;;;;;;5011898;28;20450;-65
2023/11/08 07:00:56;;;;;;;8.70;8.20;;;22.10;76.70;;;;;;5011528;28;20476;-66
2023/11/08 07:03:25;;;;;;;9.57;9.07;;;22.10;76.60;;;;;;5011780;28;20482;-66
2023/11/08 07:05:52;;;;;;;9.63;9.10;;;22.10;76.50;;;;;;5011579;28;20955;-66
2023/11/08 07:08:19;;;;;;;10.30;9.60;;;22.10;76.40;;;;;;5011842;28;20474;-65
2023/11/08 07:10:46;;;;;;;9.20;8.70;;;22.10;76.20;;;;;;5011470;28;20462;-66
2023/11/08 07:13:13;;;;;;;9.40;9.07;;;22.10;76.20;;;;;;5011766;28;20473;-66
2023/11/08 07:15:41;;;;;;;8.80;8.40;;;22.20;76.20;;;;;;5011466;28;20473;-66
2023/11/08 07:18:14;;;;;;;11.00;10.30;;;22.20;76.20;;;;;;5011622;28;20952;-65
2023/11/08 07:20:41;;;;;;;8.70;8.30;;;22.30;76.10;;;;;;5011557;28;20528;-65
2023/11/08 07:23:08;;;;;;;8.47;8.00;;;22.30;76.00;;;;;;5011497;28;20450;-66
2023/11/08 07:25:35;;;;;;;9.27;8.90;;;22.30;75.90;;;;;;5011332;28;20944;-66
2023/11/08 07:28:03;;;;;;;8.80;8.30;;;22.30;75.90;;;;;;5011538;28;20480;-65
2023/11/08 07:30:30;;;;;;;9.40;9.10;;;22.30;75.70;;;;;;5011426;28;20470;-66
2023/11/08 07:32:56;;;;;;;8.53;8.03;;;22.30;75.60;;;;;;5011427;28;20469;-66
2023/11/08 07:35:25;;;;;;;8.40;8.10;;;22.30;75.60;;;;;;5011533;28;20481;-66
2023/11/08 07:37:53;;;;;;;9.73;9.33;;;22.30;75.40;;;;;;5011732;28;20458;-66
2023/11/08 07:40:21;;;;;;;9.93;9.30;;;22.40;75.40;;;;;;5011423;28;20462;-66
2023/11/08 07:42:48;;;;;;;9.47;8.87;;;22.30;75.20;;;;;;5011353;28;20457;-65
2023/11/08 07:45:15;;;;;;;8.97;8.47;;;22.40;75.30;;;;;;5011288;28;20513;-66
2023/11/08 07:47:43;;;;;;;8.20;7.90;;;22.40;76.00;;;;;;5011380;28;20478;-66
2023/11/08 07:50:11;;;;;;;8.53;8.23;;;22.40;75.10;;;;;;5003273;28;20524;-65
2023/11/08 07:52:42;;;;;;;9.90;9.10;;;22.50;75.20;;;;;;5011519;28;20438;-66
2023/11/08 07:55:11;;;;;;;9.27;8.87;;;22.50;75.10;;;;;;5011305;28;20454;-66
2023/11/08 07:57:39;;;;;;;8.90;8.50;;;22.50;75.00;;;;;;5011595;28;20529;-66
2023/11/08 08:00:14;;;;;;;9.10;8.80;;;22.50;74.90;;;;;;5010959;28;20477;-67
2023/11/08 08:02:42;;;;;;;8.60;8.20;;;22.50;74.80;;;;;;5011874;28;20441;-66
2023/11/08 08:05:10;;;;;;;9.20;8.90;;;22.50;74.80;;;;;;5015944;28;20446;-66
2023/11/08 08:07:37;;;;;;;9.07;8.63;;;22.50;74.60;;;;;;5018731;28;20449;-66
2023/11/08 08:10:07;;;;;;;9.27;8.73;;;22.50;74.50;;;;;;5013912;28;20552;-66
2023/11/08 08:12:34;;;;;;;9.20;8.90;;;22.50;74.50;;;;;;5011557;28;20446;-66
2023/11/08 08:15:01;;;;;;;9.00;8.70;;;22.60;74.50;;;;;;5011105;28;20453;-66
2023/11/08 08:17:28;;;;;;;8.60;8.30;;;22.60;74.50;;;;;;5011137;28;20478;-66
2023/11/08 08:19:55;;;;;;;9.00;8.60;;;22.60;74.50;;;;;;5010907;28;20468;-66
2023/11/08 08:22:24;;;;;;;10.77;10.07;;;22.60;74.40;;;;;;5012097;28;20450;-66
2023/11/08 08:24:51;;;;;;;9.50;9.20;;;22.60;74.30;;;;;;5010920;28;20466;-65
2023/11/08 08:27:19;;;;;;;9.50;9.10;;;22.60;74.20;;;;;;5011972;28;20573;-66
2023/11/08 08:29:46;;;;;;;9.23;8.93;;;22.60;74.10;;;;;;5014376;28;20476;-66
2023/11/08 08:32:13;;;;;;;9.20;8.97;;;22.60;74.10;;;;;;5014478;28;20450;-66
2023/11/08 08:34:40;;;;;;;9.90;9.50;;;22.60;73.90;;;;;;5014394;28;20525;-66
2023/11/08 08:37:07;;;;;;;9.63;9.33;;;22.70;74.00;;;;;;5014224;28;20444;-67
2023/11/08 08:39:34;;;;;;;9.43;9.13;;;22.70;73.90;;;;;;5014383;28;20481;-66
2023/11/08 08:42:01;;;;;;;9.50;9.20;;;22.70;73.90;;;;;;5014386;28;20466;-66
2023/11/08 08:44:30;;;;;;;10.00;9.70;;;22.70;73.90;;;;;;5014288;28;20446;-66
2023/11/08 08:46:57;;;;;;;10.50;10.20;;;22.70;73.90;;;;;;5014145;28;20481;-66
2023/11/08 08:49:24;;;;;;;8.87;8.67;;;22.80;73.90;;;;;;5014188;28;20473;-66
2023/11/08 08:51:51;;;;;;;9.10;8.90;;;22.80;73.80;;;;;;5013870;28;20532;-66
2023/11/08 08:54:20;;;;;;;9.70;9.30;;;22.80;73.80;;;;;;5014256;28;20462;-66
2023/11/08 08:56:48;;;;;;;9.90;9.60;;;22.80;73.70;;;;;;5014199;28;20956;-66
2023/11/08 08:59:15;;;;;;;9.23;9.03;;;22.80;73.50;;;;;;5006186;28;20445;-65
2023/11/08 09:01:43;;;;;;;10.30;9.80;;;22.80;73.50;;;;;;5073479;22;20550;-70
2023/11/08 09:04:10;;;;;;;9.87;9.47;;;22.80;73.40;;;;;;5036275;28;20487;-69
2023/11/08 09:06:38;;;;;;;8.90;8.70;;;22.80;73.30;;;;;;5036406;28;20477;-70
2023/11/08 09:09:11;;;;;;;9.93;9.63;;;22.80;73.30;;;;;;5036109;28;20449;-69
2023/11/08 09:11:40;;;;;;;9.80;9.40;;;22.80;73.20;;;;;;5036275;28;20472;-70
2023/11/08 09:14:08;;;;;;;11.37;10.73;;;22.90;73.30;;;;;;5036835;28;20512;-70
2023/11/08 09:16:35;;;;;;;9.93;9.53;;;22.90;73.30;;;;;;5035542;28;20445;-69
2023/11/08 09:19:03;;;;;;;10.60;10.20;;;22.90;73.20;;;;;;5036575;28;20453;-69
2023/11/08 09:21:30;;;;;;;10.20;9.80;;;22.90;73.20;;;;;;5037438;28;20501;-70
2023/11/08 09:23:58;;;;;;;10.40;10.10;;;22.90;73.10;;;;;;5044422;28;20473;-70
2023/11/08 09:26:25;;;;;;;10.13;9.83;;;22.90;73.00;;;;;;5036989;28;20595;-71
2023/11/08 09:28:52;;;;;;;9.40;9.20;;;22.90;72.90;;;;;;5037013;28;20525;-71
2023/11/08 09:31:19;;;;;;;10.50;9.90;;;23.00;73.00;;;;;;5039360;28;20501;-71
2023/11/08 09:33:46;;;;;;;9.80;9.40;;;22.90;72.80;;;;;;5038282;28;20441;-71
2023/11/08 09:36:14;;;;;;;9.20;8.90;;;22.90;72.80;;;;;;5037304;28;20438;-68
2023/11/08 09:38:41;;;;;;;10.00;9.80;;;23.00;72.80;;;;;;5038446;28;20450;-70
2023/11/08 09:41:09;;;;;;;10.03;9.73;;;23.00;72.60;;;;;;5038505;28;20461;-70
2023/11/08 09:43:38;;;;;;;10.20;9.80;;;23.00;72.70;;;;;;5037856;28;20948;-69
2023/11/08 09:46:07;;;;;;;9.77;9.47;;;23.00;72.60;;;;;;5037537;28;20561;-70
2023/11/08 09:48:34;;;;;;;9.37;9.17;;;23.00;72.60;;;;;;5038509;28;20830;-70
2023/11/08 09:51:02;;;;;;;9.97;9.67;;;23.10;72.60;;;;;;5038107;28;20497;-69
2023/11/08 09:53:30;;;;;;;9.50;9.30;;;23.10;72.50;;;;;;5038639;28;20449;-69
2023/11/08 09:55:58;;;;;;;9.53;9.33;;;23.10;72.50;;;;;;5040479;28;20442;-69
2023/11/08 09:58:25;;;;;;;9.30;9.10;;;23.10;72.40;;;;;;5038478;28;20456;-68
2023/11/08 10:00:54;;;;;;;9.40;9.00;;;23.10;72.40;;;;;;5042232;28;20469;-69
2023/11/08 10:03:23;;;;;;;9.43;9.23;;;23.10;72.20;;;;;;5040152;28;20474;-69
2023/11/08 10:05:50;;;;;;;9.50;9.23;;;23.10;72.10;;;;;;5040586;28;20449;-69
2023/11/08 10:08:18;;;;;;;10.13;9.73;;;23.10;72.10;;;;;;5031132;28;20473;-69
2023/11/08 10:10:48;;;;;;;9.90;9.60;;;23.10;71.90;;;;;;5039262;28;20580;-70
2023/11/08 10:13:16;;;;;;;9.70;9.40;;;23.20;72.10;;;;;;5040683;28;20448;-69
2023/11/08 10:15:44;;;;;;;9.20;9.00;;;23.20;72.00;;;;;;5040248;28;20456;-68
2023/11/08 10:18:11;;;;;;;10.00;9.80;;;23.20;72.70;;;;;;5039013;28;20853;-68
2023/11/08 10:20:38;;;;;;;9.50;9.20;;;23.20;71.80;;;;;;5039004;28;20526;-70
2023/11/08 10:23:07;;;;;;;9.03;8.83;;;23.20;71.80;;;;;;5039420;28;20445;-69
2023/11/08 10:25:34;;;;;;;9.57;9.27;;;23.20;71.80;;;;;;5039290;28;20824;-69
2023/11/08 10:28:05;;;;;;;9.60;9.40;;;23.30;71.80;;;;;;5040377;28;20903;-69
2023/11/08 10:30:35;;;;;;;9.80;9.60;;;23.20;71.70;;;;;;5039093;28;20469;-69
2023/11/08 10:33:13;;;;;;;8.90;8.70;;;23.20;71.60;;;;;;5044147;28;20449;-69
2023/11/08 10:35:41;;;;;;;9.63;9.43;;;23.30;71.60;;;;;;5043449;28;20449;-68
2023/11/08 10:38:10;;;;;;;9.37;9.07;;;23.20;71.50;;;;;;5042952;28;20456;-69
2023/11/08 10:40:37;;;;;;;9.97;9.70;;;23.30;71.50;;;;;;5042940;28;20461;-69
2023/11/08 10:43:05;;;;;;;9.10;8.90;;;23.30;71.50;;;;;;5042711;28;20480;-69
2023/11/08 10:45:34;;;;;;;9.17;8.87;;;23.30;71.50;;;;;;5043717;28;20449;-68
2023/11/08 10:48:02;;;;;;;9.60;9.30;;;23.30;71.50;;;;;;5042338;28;20469;-69
2023/11/08 10:50:30;;;;;;;9.03;8.73;;;23.30;71.40;;;;;;5043755;28;20473;-69
2023/11/08 10:52:57;;;;;;;9.60;9.30;;;23.30;71.30;;;;;;5043943;28;20479;-69
2023/11/08 10:55:25;;;;;;;9.63;9.43;;;23.40;71.30;;;;;;5043200;28;20468;-70
2023/11/08 10:57:54;;;;;;;9.73;9.53;;;23.40;71.20;;;;;;5042855;28;20445;-69
2023/11/08 11:00:24;;;;;;;9.17;8.97;;;23.40;71.30;;;;;;5042280;28;20531;-70
2023/11/08 11:02:54;;;;;;;9.80;9.60;;;23.40;71.20;;;;;;5041246;28;20794;-70
2023/11/08 11:05:23;;;;;;;10.70;10.30;;;23.40;71.10;;;;;;5035251;28;20510;-69
2023/11/08 11:07:52;;;;;;;9.43;9.07;;;23.40;71.00;;;;;;5044073;28;20480;-69
2023/11/08 11:10:20;;;;;;;9.60;9.40;;;23.40;70.90;;;;;;5044333;28;21126;-69
2023/11/08 11:12:57;;;;;;;9.60;9.40;;;23.40;70.90;;;;;;5043001;28;20503;-70
2023/11/08 11:15:35;;;;;;;10.70;10.40;;;23.40;70.90;;;;;;5031582;28;20453;-69
2023/11/08 11:18:04;;;;;;;9.90;9.60;;;23.40;70.90;;;;;;5034403;28;20857;-71
2023/11/08 11:20:38;;;;;;;9.20;9.00;;;23.40;70.90;;;;;;5033922;28;20967;-70
2023/11/08 11:23:29;;;;;;;9.43;9.23;;;23.50;71.00;;;;;;5035953;28;20468;-69
2023/11/08 11:25:56;;;;;;;9.80;9.60;;;23.40;70.80;;;;;;5034770;28;20465;-70
2023/11/08 11:28:50;;;;;;;9.40;9.10;;;23.50;71.70;;;;;;5036693;28;20437;-70
2023/11/08 11:31:35;;;;;;;10.17;9.87;;;23.50;70.80;;;;;;5036328;28;20456;-69
2023/11/08 11:34:42;;;;;;;9.43;9.23;;;23.50;70.80;;;;;;5038350;28;20461;-69
2023/11/08 11:37:12;;;;;;;10.07;9.87;;;23.50;70.80;;;;;;5037018;28;20859;-69
2023/11/08 11:39:42;;;;;;;10.40;10.20;;;23.50;70.70;;;;;;5032873;28;20437;-69
2023/11/08 11:42:14;;;;;;;9.73;9.43;;;23.50;70.70;;;;;;5033595;28;20461;-69
2023/11/08 11:44:43;;;;;;;9.60;9.40;;;23.50;70.60;;;;;;5035105;28;20444;-69
2023/11/08 11:47:13;;;;;;;9.10;8.90;;;23.50;70.70;;;;;;5034227;28;20481;-70
2023/11/08 11:49:46;;;;;;;9.67;9.47;;;23.50;70.60;;;;;;5034575;28;20484;-70
2023/11/08 11:52:14;;;;;;;9.87;9.57;;;23.60;70.60;;;;;;5033269;28;20513;-69
2023/11/08 11:54:46;;;;;;;9.60;9.40;;;23.60;70.60;;;;;;5034006;28;21050;-69
2023/11/08 11:57:13;;;;;;;9.97;9.70;;;23.60;70.50;;;;;;5035553;28;20445;-70
2023/11/08 11:59:40;;;;;;;8.80;8.60;;;23.60;70.50;;;;;;5036782;28;20836;-70
2023/11/08 12:02:08;;;;;;;9.47;9.17;;;23.60;70.50;;;;;;5035616;28;20469;-70
2023/11/08 12:04:37;;;;;;;9.30;9.10;;;23.60;70.40;;;;;;5038169;28;20437;-70
2023/11/08 12:07:08;;;;;;;9.37;9.17;;;23.60;70.30;;;;;;5037840;28;20917;-70
2023/11/08 12:09:35;;;;;;;9.50;9.30;;;23.60;70.20;;;;;;5038973;28;20449;-68
2023/11/08 12:12:03;;;;;;;9.30;9.03;;;23.60;70.20;;;;;;5039803;28;20492;-70
2023/11/08 12:14:30;;;;;;;8.60;8.40;;;23.60;70.20;;;;;;5037096;28;20483;-70
2023/11/08 12:16:57;;;;;;;8.50;8.30;;;23.60;70.30;;;;;;5037035;28;20472;-69
2023/11/08 12:19:24;;;;;;;9.20;9.00;;;23.60;70.30;;;;;;5040683;28;20472;-70
2023/11/08 12:21:52;;;;;;;9.20;9.00;;;23.60;70.20;;;;;;5037542;28;20499;-70
2023/11/08 12:24:19;;;;;;;8.57;8.37;;;23.70;70.30;;;;;;5038018;28;20961;-69
2023/11/08 12:26:46;;;;;;;9.80;9.60;;;23.70;70.30;;;;;;5039126;28;20477;-71
2023/11/08 12:29:13;;;;;;;9.40;9.10;;;23.70;70.30;;;;;;5039802;28;20477;-69
2023/11/08 12:31:40;;;;;;;9.60;9.40;;;23.70;70.10;;;;;;5038382;28;20465;-70
2023/11/08 12:34:08;;;;;;;9.00;8.80;;;23.70;70.00;;;;;;5037396;28;20778;-70
2023/11/08 12:36:38;;;;;;;9.30;9.10;;;23.70;70.10;;;;;;5037706;28;20512;-70
2023/11/08 12:39:13;;;;;;;10.00;9.80;;;23.70;70.00;;;;;;5034307;28;20445;-69
2023/11/08 12:41:44;;;;;;;9.47;9.27;;;23.70;70.00;;;;;;5033983;28;20460;-69
2023/11/08 12:44:12;;;;;;;9.73;9.53;;;23.70;69.90;;;;;;5034004;28;20507;-67
2023/11/08 12:46:48;;;;;;;9.57;9.37;;;23.70;70.00;;;;;;5033960;28;20528;-69
2023/11/08 12:49:15;;;;;;;9.00;8.80;;;23.70;70.00;;;;;;5033907;28;20440;-69